Terminal Aerodrome Forecast
Issued by NWS Paducah, KY

Home | Current Version | Previous Version | Text Only | Print | Product List | Glossary Off
Versions: 1 2 3 4 5 6 7 8 9 10 11 12 13 14 15 16 17 18 19 20 21

000
FTUS43 KPAH 201100
TAFEVV
TAF
KEVV 201126Z 2012/2112 21003KT P6SM VCSH BKN100
     FM201500 22011KT P6SM SCT040 BKN100
     FM201800 24008KT P6SM BKN040
     FM210000 29004KT P6SM SKC=

USA.gov is the U.S. government's official web portal to all federal, state and local government web resources and services.